sensor_id;sensor_type;location;lat;lon;timestamp;temperature;humidity
16040;DHT22;8124;48.634;8.120;2023-04-24T00:00:25;14.70;99.90
16040;DHT22;8124;48.634;8.120;2023-04-24T00:05:29;14.70;99.90
16040;DHT22;8124;48.634;8.120;2023-04-24T00:10:32;14.70;99.90
16040;DHT22;8124;48.634;8.120;2023-04-24T00:15:35;14.70;99.90
16040;DHT22;8124;48.634;8.120;2023-04-24T00:20:39;14.70;99.90
16040;DHT22;8124;48.634;8.120;2023-04-24T00:25:42;14.70;99.90
16040;DHT22;8124;48.634;8.120;2023-04-24T00:30:45;14.70;99.90
16040;DHT22;8124;48.634;8.120;2023-04-24T00:35:49;14.80;99.90
16040;DHT22;8124;48.634;8.120;2023-04-24T00:40:52;14.70;99.90
16040;DHT22;8124;48.634;8.120;2023-04-24T00:45:57;14.60;99.90
16040;DHT22;8124;48.634;8.120;2023-04-24T00:51:03;14.70;99.90
16040;DHT22;8124;48.634;8.120;2023-04-24T00:56:06;14.70;99.90
16040;DHT22;8124;48.634;8.120;2023-04-24T01:01:09;14.70;99.90
16040;DHT22;8124;48.634;8.120;2023-04-24T01:06:15;14.60;99.90
16040;DHT22;8124;48.634;8.120;2023-04-24T01:11:18;14.50;99.90
16040;DHT22;8124;48.634;8.120;2023-04-24T01:16:21;14.60;99.90
16040;DHT22;8124;48.634;8.120;2023-04-24T01:21:26;14.60;99.90
16040;DHT22;8124;48.634;8.120;2023-04-24T01:26:33;14.70;99.90
16040;DHT22;8124;48.634;8.120;2023-04-24T01:31:36;14.50;99.90
16040;DHT22;8124;48.634;8.120;2023-04-24T01:36:39;14.50;99.90
16040;DHT22;8124;48.634;8.120;2023-04-24T01:41:45;14.30;99.90
16040;DHT22;8124;48.634;8.120;2023-04-24T01:46:49;14.30;99.90
16040;DHT22;8124;48.634;8.120;2023-04-24T01:51:52;14.30;99.90
16040;DHT22;8124;48.634;8.120;2023-04-24T01:56:57;14.30;99.90
16040;DHT22;8124;48.634;8.120;2023-04-24T02:02:01;14.30;99.90
16040;DHT22;8124;48.634;8.120;2023-04-24T02:07:04;14.30;99.90
16040;DHT22;8124;48.634;8.120;2023-04-24T02:12:09;14.30;99.90
16040;DHT22;8124;48.634;8.120;2023-04-24T02:17:12;14.30;99.90
16040;DHT22;8124;48.634;8.120;2023-04-24T02:22:17;14.20;99.90
16040;DHT22;8124;48.634;8.120;2023-04-24T02:27:21;14.20;99.90
16040;DHT22;8124;48.634;8.120;2023-04-24T02:32:24;14.30;99.90
16040;DHT22;8124;48.634;8.120;2023-04-24T02:37:27;14.20;99.90
16040;DHT22;8124;48.634;8.120;2023-04-24T02:42:31;14.20;99.90
16040;DHT22;8124;48.634;8.120;2023-04-24T02:47:34;14.20;99.90
16040;DHT22;8124;48.634;8.120;2023-04-24T02:52:37;14.00;99.90
16040;DHT22;8124;48.634;8.120;2023-04-24T02:57:41;14.10;99.90
16040;DHT22;8124;48.634;8.120;2023-04-24T03:02:44;14.10;99.90
16040;DHT22;8124;48.634;8.120;2023-04-24T03:07:55;14.10;99.90
16040;DHT22;8124;48.634;8.120;2023-04-24T03:13:00;14.10;99.90
16040;DHT22;8124;48.634;8.120;2023-04-24T03:18:02;14.00;99.90
16040;DHT22;8124;48.634;8.120;2023-04-24T03:23:05;13.60;99.90
16040;DHT22;8124;48.634;8.120;2023-04-24T03:28:11;13.60;99.90
16040;DHT22;8124;48.634;8.120;2023-04-24T03:33:21;13.30;99.90
16040;DHT22;8124;48.634;8.120;2023-04-24T03:38:34;12.90;99.90
16040;DHT22;8124;48.634;8.120;2023-04-24T03:44:11;12.40;99.90
16040;DHT22;8124;48.634;8.120;2023-04-24T03:49:15;12.70;99.90
16040;DHT22;8124;48.634;8.120;2023-04-24T03:54:21;13.00;99.90
16040;DHT22;8124;48.634;8.120;2023-04-24T03:59:27;13.00;99.90
16040;DHT22;8124;48.634;8.120;2023-04-24T04:04:45;13.10;99.90
16040;DHT22;8124;48.634;8.120;2023-04-24T04:09:48;13.30;99.90
16040;DHT22;8124;48.634;8.120;2023-04-24T04:14:52;13.20;99.90
16040;DHT22;8124;48.634;8.120;2023-04-24T04:19:56;13.20;99.90
16040;DHT22;8124;48.634;8.120;2023-04-24T04:24:59;13.20;99.90
16040;DHT22;8124;48.634;8.120;2023-04-24T04:30:06;13.30;99.90
16040;DHT22;8124;48.634;8.120;2023-04-24T04:35:21;13.30;99.90
16040;DHT22;8124;48.634;8.120;2023-04-24T04:40:25;13.20;99.90
16040;DHT22;8124;48.634;8.120;2023-04-24T04:45:36;13.10;99.90
16040;DHT22;8124;48.634;8.120;2023-04-24T04:51:10;13.20;99.90
16040;DHT22;8124;48.634;8.120;2023-04-24T04:56:13;13.20;99.90
16040;DHT22;8124;48.634;8.120;2023-04-24T05:01:21;13.20;99.90
16040;DHT22;8124;48.634;8.120;2023-04-24T05:06:25;13.20;99.90
16040;DHT22;8124;48.634;8.120;2023-04-24T05:11:29;13.20;99.90
16040;DHT22;8124;48.634;8.120;2023-04-24T05:16:36;13.20;99.90
16040;DHT22;8124;48.634;8.120;2023-04-24T05:21:41;13.30;99.90
16040;DHT22;8124;48.634;8.120;2023-04-24T05:26:45;13.40;99.90
16040;DHT22;8124;48.634;8.120;2023-04-24T05:31:52;13.40;99.90
16040;DHT22;8124;48.634;8.120;2023-04-24T05:36:56;13.30;99.90
16040;DHT22;8124;48.634;8.120;2023-04-24T05:42:00;13.40;99.90
16040;DHT22;8124;48.634;8.120;2023-04-24T05:47:04;13.10;99.90
16040;DHT22;8124;48.634;8.120;2023-04-24T05:52:07;13.10;99.90
16040;DHT22;8124;48.634;8.120;2023-04-24T05:57:12;13.10;99.90
16040;DHT22;8124;48.634;8.120;2023-04-24T06:02:33;13.10;99.90
16040;DHT22;8124;48.634;8.120;2023-04-24T06:07:37;13.00;99.90
16040;DHT22;8124;48.634;8.120;2023-04-24T06:12:43;12.90;99.90
16040;DHT22;8124;48.634;8.120;2023-04-24T06:17:52;12.90;99.90
16040;DHT22;8124;48.634;8.120;2023-04-24T06:22:55;12.90;99.90
16040;DHT22;8124;48.634;8.120;2023-04-24T06:27:58;12.80;99.90
16040;DHT22;8124;48.634;8.120;2023-04-24T06:33:03;12.70;99.90
16040;DHT22;8124;48.634;8.120;2023-04-24T06:38:20;12.80;99.90
16040;DHT22;8124;48.634;8.120;2023-04-24T06:43:23;12.70;99.90
16040;DHT22;8124;48.634;8.120;2023-04-24T06:48:27;12.60;99.90
16040;DHT22;8124;48.634;8.120;2023-04-24T06:53:30;12.70;99.90
16040;DHT22;8124;48.634;8.120;2023-04-24T06:58:33;12.90;99.90
16040;DHT22;8124;48.634;8.120;2023-04-24T07:03:37;12.90;99.90
16040;DHT22;8124;48.634;8.120;2023-04-24T07:08:40;12.80;99.90
16040;DHT22;8124;48.634;8.120;2023-04-24T07:13:45;12.90;99.90
16040;DHT22;8124;48.634;8.120;2023-04-24T07:18:49;12.90;99.90
16040;DHT22;8124;48.634;8.120;2023-04-24T07:23:53;13.00;99.90
16040;DHT22;8124;48.634;8.120;2023-04-24T07:28:56;13.00;99.90
16040;DHT22;8124;48.634;8.120;2023-04-24T07:34:00;13.00;99.90
16040;DHT22;8124;48.634;8.120;2023-04-24T07:39:03;13.10;99.90
16040;DHT22;8124;48.634;8.120;2023-04-24T07:44:06;13.00;99.90
16040;DHT22;8124;48.634;8.120;2023-04-24T07:49:10;12.90;99.90
16040;DHT22;8124;48.634;8.120;2023-04-24T07:54:15;12.70;99.90
16040;DHT22;8124;48.634;8.120;2023-04-24T07:59:18;12.60;99.90
16040;DHT22;8124;48.634;8.120;2023-04-24T08:04:22;12.50;99.90
16040;DHT22;8124;48.634;8.120;2023-04-24T08:09:25;12.50;99.90
16040;DHT22;8124;48.634;8.120;2023-04-24T08:14:28;12.60;99.90
16040;DHT22;8124;48.634;8.120;2023-04-24T08:19:32;12.60;99.90
16040;DHT22;8124;48.634;8.120;2023-04-24T08:24:35;12.50;99.90
16040;DHT22;8124;48.634;8.120;2023-04-24T08:29:39;12.40;99.90
16040;DHT22;8124;48.634;8.120;2023-04-24T08:34:43;12.60;99.90
16040;DHT22;8124;48.634;8.120;2023-04-24T08:39:49;12.50;99.90
16040;DHT22;8124;48.634;8.120;2023-04-24T08:44:52;12.30;99.90
16040;DHT22;8124;48.634;8.120;2023-04-24T08:49:56;12.40;99.90
16040;DHT22;8124;48.634;8.120;2023-04-24T08:55:01;12.40;99.90
16040;DHT22;8124;48.634;8.120;2023-04-24T09:00:07;12.40;99.90
16040;DHT22;8124;48.634;8.120;2023-04-24T09:05:16;12.60;99.90
16040;DHT22;8124;48.634;8.120;2023-04-24T09:10:19;12.70;99.90
16040;DHT22;8124;48.634;8.120;2023-04-24T09:15:23;12.80;99.90
16040;DHT22;8124;48.634;8.120;2023-04-24T09:20:28;12.80;99.90
16040;DHT22;8124;48.634;8.120;2023-04-24T09:25:33;13.00;99.90
16040;DHT22;8124;48.634;8.120;2023-04-24T09:30:37;12.80;99.90
16040;DHT22;8124;48.634;8.120;2023-04-24T09:35:42;12.90;99.90
16040;DHT22;8124;48.634;8.120;2023-04-24T09:40:45;12.90;99.90
16040;DHT22;8124;48.634;8.120;2023-04-24T09:45:48;12.70;99.90
16040;DHT22;8124;48.634;8.120;2023-04-24T09:50:53;12.80;99.90
16040;DHT22;8124;48.634;8.120;2023-04-24T09:56:02;12.80;99.90
16040;DHT22;8124;48.634;8.120;2023-04-24T10:01:05;13.00;99.90
16040;DHT22;8124;48.634;8.120;2023-04-24T10:06:12;13.00;99.90
16040;DHT22;8124;48.634;8.120;2023-04-24T10:11:15;13.00;99.90
16040;DHT22;8124;48.634;8.120;2023-04-24T10:16:19;12.80;99.90
16040;DHT22;8124;48.634;8.120;2023-04-24T10:21:26;12.70;99.90
16040;DHT22;8124;48.634;8.120;2023-04-24T10:26:29;12.60;99.90
16040;DHT22;8124;48.634;8.120;2023-04-24T10:31:32;12.70;99.90
16040;DHT22;8124;48.634;8.120;2023-04-24T10:36:42;12.90;99.90
16040;DHT22;8124;48.634;8.120;2023-04-24T10:41:45;12.80;99.90
16040;DHT22;8124;48.634;8.120;2023-04-24T10:46:53;13.00;99.90
16040;DHT22;8124;48.634;8.120;2023-04-24T10:52:02;12.90;99.90
16040;DHT22;8124;48.634;8.120;2023-04-24T10:57:26;12.80;99.90
16040;DHT22;8124;48.634;8.120;2023-04-24T11:02:36;12.80;99.90
16040;DHT22;8124;48.634;8.120;2023-04-24T11:08:10;13.40;99.90
16040;DHT22;8124;48.634;8.120;2023-04-24T11:13:15;13.30;99.90
16040;DHT22;8124;48.634;8.120;2023-04-24T11:18:19;13.50;99.90
16040;DHT22;8124;48.634;8.120;2023-04-24T11:23:23;13.50;99.90
16040;DHT22;8124;48.634;8.120;2023-04-24T11:28:26;13.30;99.90
16040;DHT22;8124;48.634;8.120;2023-04-24T11:33:31;13.30;99.90
16040;DHT22;8124;48.634;8.120;2023-04-24T11:38:35;13.50;99.90
16040;DHT22;8124;48.634;8.120;2023-04-24T11:43:39;13.40;99.90
16040;DHT22;8124;48.634;8.120;2023-04-24T11:48:45;13.40;99.90
16040;DHT22;8124;48.634;8.120;2023-04-24T11:53:49;13.20;99.90
16040;DHT22;8124;48.634;8.120;2023-04-24T11:59:04;13.00;99.90
16040;DHT22;8124;48.634;8.120;2023-04-24T12:04:06;13.20;99.90
16040;DHT22;8124;48.634;8.120;2023-04-24T12:09:11;13.00;99.90
16040;DHT22;8124;48.634;8.120;2023-04-24T12:14:19;12.90;99.90
16040;DHT22;8124;48.634;8.120;2023-04-24T12:19:23;12.90;99.90
16040;DHT22;8124;48.634;8.120;2023-04-24T12:24:28;13.10;99.90
16040;DHT22;8124;48.634;8.120;2023-04-24T12:29:32;13.20;99.90
16040;DHT22;8124;48.634;8.120;2023-04-24T12:34:35;13.20;99.90
16040;DHT22;8124;48.634;8.120;2023-04-24T12:39:46;13.10;99.90
16040;DHT22;8124;48.634;8.120;2023-04-24T12:45:01;13.00;99.90
16040;DHT22;8124;48.634;8.120;2023-04-24T12:50:06;13.00;99.90
16040;DHT22;8124;48.634;8.120;2023-04-24T12:55:11;12.80;99.90
16040;DHT22;8124;48.634;8.120;2023-04-24T13:00:15;12.90;99.90
16040;DHT22;8124;48.634;8.120;2023-04-24T13:05:20;13.00;99.90
16040;DHT22;8124;48.634;8.120;2023-04-24T13:10:27;13.10;99.90
16040;DHT22;8124;48.634;8.120;2023-04-24T13:15:30;13.30;99.90
16040;DHT22;8124;48.634;8.120;2023-04-24T13:20:33;13.40;99.90
16040;DHT22;8124;48.634;8.120;2023-04-24T13:25:38;13.60;99.90
16040;DHT22;8124;48.634;8.120;2023-04-24T13:30:41;13.60;99.90
16040;DHT22;8124;48.634;8.120;2023-04-24T13:35:44;13.60;99.90
16040;DHT22;8124;48.634;8.120;2023-04-24T13:40:48;13.70;99.90
16040;DHT22;8124;48.634;8.120;2023-04-24T13:45:51;13.60;99.90
16040;DHT22;8124;48.634;8.120;2023-04-24T13:50:54;13.50;99.90
16040;DHT22;8124;48.634;8.120;2023-04-24T13:55:58;13.60;99.90
16040;DHT22;8124;48.634;8.120;2023-04-24T14:01:01;13.60;99.90
16040;DHT22;8124;48.634;8.120;2023-04-24T14:06:05;13.70;99.90
16040;DHT22;8124;48.634;8.120;2023-04-24T14:11:10;13.70;99.90
16040;DHT22;8124;48.634;8.120;2023-04-24T14:16:13;13.70;99.90
16040;DHT22;8124;48.634;8.120;2023-04-24T14:21:17;13.90;99.90
16040;DHT22;8124;48.634;8.120;2023-04-24T14:26:21;13.80;99.90
16040;DHT22;8124;48.634;8.120;2023-04-24T14:31:26;14.10;99.90
16040;DHT22;8124;48.634;8.120;2023-04-24T14:36:29;14.20;99.90
16040;DHT22;8124;48.634;8.120;2023-04-24T14:41:33;14.10;99.90
16040;DHT22;8124;48.634;8.120;2023-04-24T14:46:37;14.20;99.90
16040;DHT22;8124;48.634;8.120;2023-04-24T14:51:40;14.30;99.90
16040;DHT22;8124;48.634;8.120;2023-04-24T14:56:45;14.50;99.90
16040;DHT22;8124;48.634;8.120;2023-04-24T15:01:54;14.40;99.90
16040;DHT22;8124;48.634;8.120;2023-04-24T15:07:16;14.20;99.90
16040;DHT22;8124;48.634;8.120;2023-04-24T15:12:21;14.20;99.90
16040;DHT22;8124;48.634;8.120;2023-04-24T15:17:24;14.00;99.90
16040;DHT22;8124;48.634;8.120;2023-04-24T15:22:27;14.00;99.90
16040;DHT22;8124;48.634;8.120;2023-04-24T15:27:40;13.90;99.90
16040;DHT22;8124;48.634;8.120;2023-04-24T15:32:44;14.20;99.90
16040;DHT22;8124;48.634;8.120;2023-04-24T15:37:47;14.60;99.90
16040;DHT22;8124;48.634;8.120;2023-04-24T15:42:52;15.00;99.90
16040;DHT22;8124;48.634;8.120;2023-04-24T15:47:55;15.10;99.90
16040;DHT22;8124;48.634;8.120;2023-04-24T15:52:59;15.30;99.90
16040;DHT22;8124;48.634;8.120;2023-04-24T15:58:03;15.40;99.90
16040;DHT22;8124;48.634;8.120;2023-04-24T16:03:06;15.60;99.90
16040;DHT22;8124;48.634;8.120;2023-04-24T16:08:11;15.70;99.90
16040;DHT22;8124;48.634;8.120;2023-04-24T16:13:18;15.60;99.90
16040;DHT22;8124;48.634;8.120;2023-04-24T16:18:21;15.50;99.90
16040;DHT22;8124;48.634;8.120;2023-04-24T16:23:24;15.50;99.90
16040;DHT22;8124;48.634;8.120;2023-04-24T16:28:29;15.40;99.90
16040;DHT22;8124;48.634;8.120;2023-04-24T16:33:40;15.40;99.90
16040;DHT22;8124;48.634;8.120;2023-04-24T16:38:42;15.40;99.90
16040;DHT22;8124;48.634;8.120;2023-04-24T16:43:47;15.30;99.90
16040;DHT22;8124;48.634;8.120;2023-04-24T16:48:50;15.40;99.90
16040;DHT22;8124;48.634;8.120;2023-04-24T16:53:55;15.50;99.90
16040;DHT22;8124;48.634;8.120;2023-04-24T16:58:59;15.50;99.90
16040;DHT22;8124;48.634;8.120;2023-04-24T17:04:02;15.40;99.90
16040;DHT22;8124;48.634;8.120;2023-04-24T17:09:05;15.20;99.90
16040;DHT22;8124;48.634;8.120;2023-04-24T17:14:09;14.90;99.90
16040;DHT22;8124;48.634;8.120;2023-04-24T17:19:12;14.70;99.90
16040;DHT22;8124;48.634;8.120;2023-04-24T17:24:15;14.60;99.90
16040;DHT22;8124;48.634;8.120;2023-04-24T17:29:20;14.90;99.90
16040;DHT22;8124;48.634;8.120;2023-04-24T17:34:23;15.20;99.90
16040;DHT22;8124;48.634;8.120;2023-04-24T17:39:26;15.20;99.90
16040;DHT22;8124;48.634;8.120;2023-04-24T17:44:30;15.20;99.90
16040;DHT22;8124;48.634;8.120;2023-04-24T17:49:33;15.10;99.90
16040;DHT22;8124;48.634;8.120;2023-04-24T17:54:39;15.00;99.90
16040;DHT22;8124;48.634;8.120;2023-04-24T17:59:43;15.10;99.90
16040;DHT22;8124;48.634;8.120;2023-04-24T18:04:46;15.00;99.90
16040;DHT22;8124;48.634;8.120;2023-04-24T18:09:49;15.00;99.90
16040;DHT22;8124;48.634;8.120;2023-04-24T18:14:56;15.00;99.90
16040;DHT22;8124;48.634;8.120;2023-04-24T18:20:16;14.80;99.90
16040;DHT22;8124;48.634;8.120;2023-04-24T18:25:19;14.60;99.90
16040;DHT22;8124;48.634;8.120;2023-04-24T18:30:29;14.80;99.90
16040;DHT22;8124;48.634;8.120;2023-04-24T18:35:33;14.80;99.90
16040;DHT22;8124;48.634;8.120;2023-04-24T18:40:36;14.70;99.90
16040;DHT22;8124;48.634;8.120;2023-04-24T18:45:40;14.50;99.90
16040;DHT22;8124;48.634;8.120;2023-04-24T18:50:43;14.50;99.90
16040;DHT22;8124;48.634;8.120;2023-04-24T18:55:46;14.30;99.90
16040;DHT22;8124;48.634;8.120;2023-04-24T19:00:50;14.30;99.90
16040;DHT22;8124;48.634;8.120;2023-04-24T19:05:53;14.20;99.90
16040;DHT22;8124;48.634;8.120;2023-04-24T19:10:56;14.10;99.90
16040;DHT22;8124;48.634;8.120;2023-04-24T19:16:00;14.10;99.90
16040;DHT22;8124;48.634;8.120;2023-04-24T19:21:03;14.20;99.90
16040;DHT22;8124;48.634;8.120;2023-04-24T19:26:06;14.20;99.90
16040;DHT22;8124;48.634;8.120;2023-04-24T19:31:10;14.20;99.90
16040;DHT22;8124;48.634;8.120;2023-04-24T19:36:14;14.10;99.90
16040;DHT22;8124;48.634;8.120;2023-04-24T19:41:18;14.10;99.90
16040;DHT22;8124;48.634;8.120;2023-04-24T19:46:22;14.00;99.90
16040;DHT22;8124;48.634;8.120;2023-04-24T19:51:26;14.10;99.90
16040;DHT22;8124;48.634;8.120;2023-04-24T19:56:29;14.00;99.90
16040;DHT22;8124;48.634;8.120;2023-04-24T20:01:33;14.00;99.90
16040;DHT22;8124;48.634;8.120;2023-04-24T20:06:37;14.10;99.90
16040;DHT22;8124;48.634;8.120;2023-04-24T20:11:40;14.10;99.90
16040;DHT22;8124;48.634;8.120;2023-04-24T20:16:45;14.10;99.90
16040;DHT22;8124;48.634;8.120;2023-04-24T20:21:48;14.10;99.90
16040;DHT22;8124;48.634;8.120;2023-04-24T20:26:51;14.20;99.90
16040;DHT22;8124;48.634;8.120;2023-04-24T20:31:55;14.10;99.90
16040;DHT22;8124;48.634;8.120;2023-04-24T20:36:58;14.20;99.90
16040;DHT22;8124;48.634;8.120;2023-04-24T20:42:01;14.20;99.90
16040;DHT22;8124;48.634;8.120;2023-04-24T20:47:05;14.00;99.90
16040;DHT22;8124;48.634;8.120;2023-04-24T20:52:09;14.00;99.90
16040;DHT22;8124;48.634;8.120;2023-04-24T20:57:12;14.00;99.90
16040;DHT22;8124;48.634;8.120;2023-04-24T21:02:16;13.90;99.90
16040;DHT22;8124;48.634;8.120;2023-04-24T21:07:19;13.90;99.90
16040;DHT22;8124;48.634;8.120;2023-04-24T21:12:22;13.80;99.90
16040;DHT22;8124;48.634;8.120;2023-04-24T21:17:26;13.80;99.90
16040;DHT22;8124;48.634;8.120;2023-04-24T21:22:29;13.90;99.90
16040;DHT22;8124;48.634;8.120;2023-04-24T21:27:32;13.70;99.90
16040;DHT22;8124;48.634;8.120;2023-04-24T21:32:37;13.70;99.90
16040;DHT22;8124;48.634;8.120;2023-04-24T21:37:41;13.70;99.90
16040;DHT22;8124;48.634;8.120;2023-04-24T21:42:44;13.60;99.90
16040;DHT22;8124;48.634;8.120;2023-04-24T21:47:48;13.50;99.90
16040;DHT22;8124;48.634;8.120;2023-04-24T21:52:51;13.40;99.90
16040;DHT22;8124;48.634;8.120;2023-04-24T21:57:54;13.40;99.90
16040;DHT22;8124;48.634;8.120;2023-04-24T22:02:58;13.40;99.90
16040;DHT22;8124;48.634;8.120;2023-04-24T22:08:02;13.40;99.90
16040;DHT22;8124;48.634;8.120;2023-04-24T22:13:06;13.30;99.90
16040;DHT22;8124;48.634;8.120;2023-04-24T22:18:10;13.40;99.90
16040;DHT22;8124;48.634;8.120;2023-04-24T22:23:14;13.30;99.90
16040;DHT22;8124;48.634;8.120;2023-04-24T22:28:19;13.30;99.90
16040;DHT22;8124;48.634;8.120;2023-04-24T22:33:23;13.40;99.90
16040;DHT22;8124;48.634;8.120;2023-04-24T22:38:26;13.50;99.90
16040;DHT22;8124;48.634;8.120;2023-04-24T22:43:29;13.50;99.90
16040;DHT22;8124;48.634;8.120;2023-04-24T22:48:33;13.50;99.90
16040;DHT22;8124;48.634;8.120;2023-04-24T22:53:37;13.40;99.90
16040;DHT22;8124;48.634;8.120;2023-04-24T22:58:39;13.50;99.90
16040;DHT22;8124;48.634;8.120;2023-04-24T23:03:44;13.30;99.90
16040;DHT22;8124;48.634;8.120;2023-04-24T23:08:55;13.40;99.90
16040;DHT22;8124;48.634;8.120;2023-04-24T23:13:58;13.30;99.90
16040;DHT22;8124;48.634;8.120;2023-04-24T23:19:02;13.20;99.90
16040;DHT22;8124;48.634;8.120;2023-04-24T23:24:05;13.30;99.90
16040;DHT22;8124;48.634;8.120;2023-04-24T23:29:08;13.30;99.90
16040;DHT22;8124;48.634;8.120;2023-04-24T23:34:13;13.30;99.90
16040;DHT22;8124;48.634;8.120;2023-04-24T23:39:18;13.20;99.90
16040;DHT22;8124;48.634;8.120;2023-04-24T23:44:21;13.20;99.90
16040;DHT22;8124;48.634;8.120;2023-04-24T23:49:25;13.10;99.90
16040;DHT22;8124;48.634;8.120;2023-04-24T23:54:28;13.10;99.90
16040;DHT22;8124;48.634;8.120;2023-04-24T23:59:32;13.10;99.90
